Time;durP1;ratioP1;P1;durP2;ratioP2;P2;SDS_P1;SDS_P2;PMS_P1;PMS_P2;Temp;Humidity;BMP_temperature;BMP_pressure;BME280_temperature;BME280_humidity;BME280_pressure;Samples;Min_cycle;Max_cycle;Signal;HPM_P1;HPM_P2
2023/09/05 00:01:59;;;;;;;10.23;7.78;;;14.20;99.90;;;;;;4943563;28;20323;-86
2023/09/05 00:04:25;;;;;;;9.48;7.60;;;14.10;99.90;;;;;;4959655;28;20443;-85
2023/09/05 00:06:51;;;;;;;8.70;7.80;;;14.10;99.90;;;;;;4946997;28;20031;-85
2023/09/05 00:09:18;;;;;;;9.35;7.88;;;14.10;99.90;;;;;;4979107;28;20054;-86
2023/09/05 00:11:47;;;;;;;9.63;8.00;;;14.20;99.90;;;;;;4942333;28;20450;-86
2023/09/05 00:14:15;;;;;;;9.63;7.65;;;14.20;99.90;;;;;;4980693;28;20066;-85
2023/09/05 00:16:41;;;;;;;10.18;7.82;;;14.20;99.90;;;;;;4962436;28;20707;-86
2023/09/05 00:19:07;;;;;;;9.00;7.53;;;14.20;99.90;;;;;;4961439;28;20478;-85
2023/09/05 00:21:32;;;;;;;10.50;7.75;;;14.20;99.90;;;;;;4961492;28;20438;-86
2023/09/05 00:24:28;;;;;;;9.27;8.15;;;14.20;99.90;;;;;;4965083;28;20146;-86
2023/09/05 00:26:57;;;;;;;11.07;7.70;;;14.20;99.90;;;;;;4964208;28;20030;-86
2023/09/05 00:29:24;;;;;;;9.98;8.02;;;14.10;99.90;;;;;;4976159;28;20069;-86
2023/09/05 00:31:50;;;;;;;8.88;7.47;;;14.10;99.90;;;;;;4963839;28;20043;-86
2023/09/05 00:34:16;;;;;;;9.77;8.05;;;14.00;99.90;;;;;;4976897;28;20077;-85
2023/09/05 00:36:42;;;;;;;11.27;8.25;;;14.00;99.90;;;;;;4975896;28;20116;-85
2023/09/05 00:39:09;;;;;;;9.02;7.68;;;14.00;99.90;;;;;;4963677;28;20050;-85
2023/09/05 00:41:37;;;;;;;10.32;8.45;;;14.10;99.90;;;;;;4961229;28;20045;-85
2023/09/05 00:44:04;;;;;;;10.07;8.40;;;14.00;99.90;;;;;;4963432;28;20045;-86
2023/09/05 00:46:31;;;;;;;10.68;8.95;;;14.00;99.90;;;;;;4947000;28;20577;-85
2023/09/05 00:48:57;;;;;;;11.30;8.88;;;14.00;99.90;;;;;;4976824;28;20040;-85
2023/09/05 00:51:25;;;;;;;10.60;8.98;;;14.00;99.90;;;;;;4957360;28;20030;-85
2023/09/05 00:53:51;;;;;;;10.40;8.88;;;13.90;99.90;;;;;;4975536;28;20109;-86
2023/09/05 00:56:17;;;;;;;11.05;9.45;;;13.90;99.90;;;;;;4943696;28;20493;-85
2023/09/05 00:58:43;;;;;;;13.05;9.35;;;13.90;99.90;;;;;;4961565;28;20034;-86
2023/09/05 01:01:08;;;;;;;11.05;8.95;;;13.90;99.90;;;;;;4972485;28;20051;-86
2023/09/05 01:03:34;;;;;;;12.35;9.02;;;13.80;99.90;;;;;;4959777;28;20486;-86
2023/09/05 01:06:05;;;;;;;11.82;9.48;;;13.80;99.90;;;;;;4959797;28;20073;-85
2023/09/05 01:08:52;;;;;;;11.90;8.98;;;13.80;99.90;;;;;;4978988;28;20502;-85
2023/09/05 01:11:19;;;;;;;10.70;8.63;;;13.70;99.90;;;;;;4957985;28;20045;-85
2023/09/05 01:13:45;;;;;;;9.88;8.23;;;13.70;99.90;;;;;;4960378;28;20042;-85
2023/09/05 01:16:10;;;;;;;9.98;8.23;;;13.60;99.90;;;;;;4945252;28;20048;-84
2023/09/05 01:18:40;;;;;;;12.07;7.78;;;13.60;99.90;;;;;;4960703;28;20057;-86
2023/09/05 01:21:38;;;;;;;10.50;8.88;;;13.60;99.90;;;;;;4979499;28;20048;-85
2023/09/05 01:24:14;;;;;;;11.25;9.73;;;13.60;99.90;;;;;;4946694;28;20128;-85
2023/09/05 01:26:40;;;;;;;12.20;9.88;;;13.60;99.90;;;;;;4977329;28;20097;-85
2023/09/05 01:29:08;;;;;;;11.13;8.90;;;13.50;99.90;;;;;;4947616;28;20049;-85
2023/09/05 01:31:35;;;;;;;11.55;9.13;;;13.50;99.90;;;;;;4976075;28;20046;-85
2023/09/05 01:34:00;;;;;;;12.98;9.13;;;13.50;99.90;;;;;;4961741;28;20053;-85
2023/09/05 01:36:31;;;;;;;11.00;9.70;;;13.60;99.90;;;;;;4960215;28;20038;-85
2023/09/05 01:38:57;;;;;;;12.45;9.40;;;13.60;99.90;;;;;;4973461;28;20189;-85
2023/09/05 01:41:23;;;;;;;14.45;9.32;;;13.50;99.90;;;;;;4958218;28;20394;-85
2023/09/05 01:43:48;;;;;;;12.57;10.10;;;13.50;99.90;;;;;;4976900;28;20065;-85
2023/09/05 01:46:14;;;;;;;15.07;10.52;;;13.50;99.90;;;;;;4956709;28;20402;-85
2023/09/05 01:48:39;;;;;;;15.73;9.98;;;13.40;99.90;;;;;;4962028;28;20045;-85
2023/09/05 01:51:05;;;;;;;11.77;9.05;;;13.40;99.90;;;;;;4959341;28;21003;-85
2023/09/05 01:53:33;;;;;;;13.15;10.15;;;13.40;99.90;;;;;;4976017;28;20509;-85
2023/09/05 01:55:59;;;;;;;12.88;10.32;;;13.40;99.90;;;;;;4961678;28;20050;-85
2023/09/05 01:58:24;;;;;;;12.68;10.27;;;13.50;99.90;;;;;;4961323;28;20417;-85
2023/09/05 02:01:00;;;;;;;13.65;10.45;;;13.50;99.90;;;;;;4961092;28;20533;-85
2023/09/05 02:03:26;;;;;;;13.02;10.57;;;13.50;99.90;;;;;;4975720;28;20124;-84
2023/09/05 02:05:51;;;;;;;11.27;9.07;;;13.40;99.90;;;;;;4975036;28;20046;-85
2023/09/05 02:08:17;;;;;;;14.10;10.10;;;13.40;99.90;;;;;;4973624;28;20141;-85
2023/09/05 02:10:44;;;;;;;12.32;10.30;;;13.40;99.90;;;;;;4962868;28;21418;-85
2023/09/05 02:13:10;;;;;;;13.85;11.20;;;13.40;99.90;;;;;;4960001;28;20565;-85
2023/09/05 02:15:37;;;;;;;14.07;10.38;;;13.40;99.90;;;;;;4963770;28;20120;-85
2023/09/05 02:18:03;;;;;;;15.73;11.70;;;13.40;99.90;;;;;;4978852;28;20049;-85
2023/09/05 02:20:29;;;;;;;17.05;11.23;;;13.40;99.90;;;;;;4948272;28;20285;-84
2023/09/05 02:22:54;;;;;;;13.52;10.88;;;13.40;99.90;;;;;;4965305;28;20265;-85
2023/09/05 02:25:20;;;;;;;13.57;10.57;;;13.40;99.90;;;;;;4979115;28;20043;-85
2023/09/05 02:27:46;;;;;;;12.38;10.95;;;13.40;99.90;;;;;;4960704;28;20080;-85
2023/09/05 02:30:12;;;;;;;15.50;12.02;;;13.40;99.90;;;;;;4947189;28;20070;-84
2023/09/05 02:32:38;;;;;;;15.27;11.73;;;13.40;99.90;;;;;;4981057;28;20055;-84
2023/09/05 02:35:05;;;;;;;14.68;11.02;;;13.40;99.90;;;;;;4964057;28;20050;-84
2023/09/05 02:37:31;;;;;;;15.93;11.98;;;13.40;99.90;;;;;;4933875;28;20045;-85
2023/09/05 02:39:59;;;;;;;16.20;11.77;;;13.40;99.90;;;;;;4978020;28;20206;-85
2023/09/05 02:42:25;;;;;;;14.38;11.75;;;13.40;99.90;;;;;;4947630;28;20042;-85
2023/09/05 02:44:51;;;;;;;17.73;13.45;;;13.40;99.90;;;;;;4959746;28;20136;-84
2023/09/05 02:47:17;;;;;;;15.93;12.00;;;13.40;99.90;;;;;;4946250;28;20082;-84
2023/09/05 02:49:43;;;;;;;15.93;12.20;;;13.40;99.90;;;;;;4959270;28;20042;-84
2023/09/05 02:52:08;;;;;;;17.20;12.23;;;13.40;99.90;;;;;;4958298;28;20050;-84
2023/09/05 02:54:34;;;;;;;16.45;12.48;;;13.40;99.90;;;;;;4948694;28;20482;-85
2023/09/05 02:56:59;;;;;;;15.00;11.80;;;13.40;99.90;;;;;;4979233;28;20061;-84
2023/09/05 02:59:25;;;;;;;16.33;12.18;;;13.30;99.90;;;;;;4961647;28;20049;-85
2023/09/05 03:01:50;;;;;;;15.35;11.98;;;13.30;99.90;;;;;;4976177;28;20043;-84
2023/09/05 03:04:16;;;;;;;13.82;11.73;;;13.30;99.90;;;;;;4958764;28;20031;-84
2023/09/05 03:06:42;;;;;;;18.15;11.98;;;13.30;99.90;;;;;;4963986;28;20065;-84
2023/09/05 03:09:08;;;;;;;15.35;11.30;;;13.30;99.90;;;;;;4979993;28;20097;-84
2023/09/05 03:11:34;;;;;;;16.30;11.85;;;13.30;99.90;;;;;;4979109;28;20038;-84
2023/09/05 03:14:01;;;;;;;15.05;12.18;;;13.30;99.90;;;;;;4959953;28;20050;-84
2023/09/05 03:16:28;;;;;;;15.82;12.98;;;13.30;99.90;;;;;;4979837;28;20047;-85
2023/09/05 03:18:59;;;;;;;16.30;12.13;;;13.30;99.90;;;;;;4978941;28;20046;-84
2023/09/05 03:21:28;;;;;;;17.65;12.95;;;13.30;99.90;;;;;;4964785;28;20126;-82
2023/09/05 03:23:55;;;;;;;16.38;11.82;;;13.30;99.90;;;;;;4962904;28;20254;-84
2023/09/05 03:26:20;;;;;;;14.90;11.55;;;13.20;99.90;;;;;;4959675;28;20042;-84
2023/09/05 03:28:47;;;;;;;13.63;11.57;;;13.30;99.90;;;;;;4952013;28;20085;-84
2023/09/05 03:31:13;;;;;;;16.27;12.38;;;13.20;99.90;;;;;;4978521;28;20403;-84
2023/09/05 03:33:39;;;;;;;14.18;11.20;;;13.20;99.90;;;;;;4959866;28;20458;-84
2023/09/05 03:36:05;;;;;;;17.20;12.68;;;13.20;99.90;;;;;;4977458;28;20100;-84
2023/09/05 03:38:32;;;;;;;14.80;11.73;;;13.20;99.90;;;;;;4948869;28;20145;-84
2023/09/05 03:40:58;;;;;;;16.73;12.18;;;13.20;99.90;;;;;;4960991;28;20481;-85
2023/09/05 03:43:24;;;;;;;15.05;11.80;;;13.20;99.90;;;;;;4961121;28;20170;-84
2023/09/05 03:45:49;;;;;;;15.30;11.77;;;13.20;99.90;;;;;;4959848;28;20125;-84
2023/09/05 03:48:15;;;;;;;16.60;11.85;;;13.20;99.90;;;;;;4961091;28;20124;-84
2023/09/05 03:50:41;;;;;;;14.73;11.40;;;13.20;99.90;;;;;;4979284;28;20204;-84
2023/09/05 03:53:07;;;;;;;13.88;11.57;;;13.10;99.90;;;;;;4947576;28;20607;-84
2023/09/05 03:55:34;;;;;;;15.60;12.25;;;13.20;99.90;;;;;;4952305;28;20290;-84
2023/09/05 03:58:00;;;;;;;16.13;12.35;;;13.10;99.90;;;;;;4979735;28;20109;-85
2023/09/05 04:00:30;;;;;;;16.20;13.15;;;13.10;99.90;;;;;;4963726;28;20049;-84
2023/09/05 04:02:56;;;;;;;15.02;12.63;;;13.10;99.90;;;;;;4941241;28;20191;-84
2023/09/05 04:05:22;;;;;;;18.02;13.18;;;13.10;99.90;;;;;;4962649;28;20155;-84
2023/09/05 04:07:48;;;;;;;16.38;13.27;;;13.00;99.90;;;;;;4948303;28;20058;-84
2023/09/05 04:10:16;;;;;;;15.70;12.38;;;13.00;99.90;;;;;;4944398;28;20042;-84
2023/09/05 04:12:42;;;;;;;15.55;11.82;;;13.00;99.90;;;;;;4960941;28;20273;-84
2023/09/05 04:15:08;;;;;;;19.80;13.93;;;13.00;99.90;;;;;;4961339;28;20099;-84
2023/09/05 04:17:37;;;;;;;15.73;12.82;;;13.00;99.90;;;;;;4961116;28;20054;-84
2023/09/05 04:20:06;;;;;;;14.80;12.45;;;12.90;99.90;;;;;;4944504;28;20457;-84
2023/09/05 04:22:32;;;;;;;17.08;13.25;;;12.90;99.90;;;;;;4947703;28;20126;-84
2023/09/05 04:24:57;;;;;;;18.02;12.70;;;12.90;99.90;;;;;;4957651;28;20125;-83
2023/09/05 04:27:23;;;;;;;15.35;11.70;;;12.90;99.90;;;;;;4947266;28;20134;-84
2023/09/05 04:29:54;;;;;;;15.32;11.93;;;12.80;99.90;;;;;;4945903;28;20484;-84
2023/09/05 04:32:42;;;;;;;12.15;10.25;;;12.70;99.90;;;;;;4961101;28;20101;-84
2023/09/05 04:35:07;;;;;;;15.02;11.27;;;12.70;99.90;;;;;;4961180;28;20466;-85
2023/09/05 04:37:33;;;;;;;15.80;13.07;;;12.80;99.90;;;;;;4946701;28;20042;-84
2023/09/05 04:40:01;;;;;;;16.05;13.25;;;12.80;99.90;;;;;;4943153;28;20038;-84
2023/09/05 04:42:27;;;;;;;16.85;14.48;;;12.80;99.90;;;;;;4962213;28;20050;-84
2023/09/05 04:44:53;;;;;;;17.50;14.52;;;12.80;99.90;;;;;;4978443;28;20030;-84
2023/09/05 04:47:19;;;;;;;16.95;14.25;;;12.80;99.90;;;;;;4960020;28;20541;-84
2023/09/05 04:49:46;;;;;;;15.40;13.80;;;12.80;99.90;;;;;;4962113;28;20038;-84
2023/09/05 04:52:14;;;;;;;17.00;13.63;;;12.80;99.90;;;;;;4960190;28;20042;-84
2023/09/05 04:54:41;;;;;;;16.05;14.02;;;12.80;99.90;;;;;;4944126;28;20047;-84
2023/09/05 04:57:06;;;;;;;17.13;14.43;;;12.80;99.90;;;;;;4961084;28;20038;-84
2023/09/05 04:59:32;;;;;;;16.98;13.70;;;12.80;99.90;;;;;;4977281;28;20489;-83
2023/09/05 05:02:04;;;;;;;18.92;14.27;;;12.80;99.90;;;;;;4974832;28;20051;-84
2023/09/05 05:04:32;;;;;;;19.02;13.80;;;12.90;99.90;;;;;;4959186;28;20105;-84
2023/09/05 05:06:58;;;;;;;17.02;13.43;;;13.00;99.90;;;;;;4944737;28;20450;-84
2023/09/05 05:09:24;;;;;;;17.85;13.73;;;13.00;99.90;;;;;;4978270;28;20137;-84
2023/09/05 05:11:53;;;;;;;17.58;13.77;;;13.00;99.90;;;;;;4947290;28;20053;-84
2023/09/05 05:14:18;;;;;;;18.67;13.43;;;13.00;99.90;;;;;;4943555;28;20214;-84
2023/09/05 05:16:44;;;;;;;18.33;14.05;;;13.00;99.90;;;;;;4962123;28;20046;-84
2023/09/05 05:19:10;;;;;;;19.23;14.43;;;13.10;99.90;;;;;;4961177;28;20133;-84
2023/09/05 05:21:38;;;;;;;16.52;13.50;;;13.20;99.90;;;;;;4962530;28;20042;-84
2023/09/05 05:24:07;;;;;;;18.30;14.18;;;13.20;99.90;;;;;;4962218;28;20423;-84
2023/09/05 05:26:33;;;;;;;17.83;13.98;;;13.40;99.90;;;;;;4959621;28;20525;-84
2023/09/05 05:28:59;;;;;;;17.55;14.20;;;13.40;99.90;;;;;;4974759;28;20239;-84
2023/09/05 05:31:26;;;;;;;18.05;13.93;;;13.50;99.90;;;;;;4959796;28;20138;-84
2023/09/05 05:33:54;;;;;;;19.05;14.07;;;13.50;99.90;;;;;;4945336;28;20043;-84
2023/09/05 05:36:21;;;;;;;17.20;13.98;;;13.60;99.90;;;;;;4944925;28;20053;-84
2023/09/05 05:38:50;;;;;;;19.77;14.75;;;13.70;99.90;;;;;;4961116;28;20490;-84
2023/09/05 05:41:15;;;;;;;19.27;14.90;;;13.70;99.90;;;;;;4972202;28;20042;-84
2023/09/05 05:43:44;;;;;;;17.48;12.85;;;13.80;99.90;;;;;;4957734;28;20065;-84
2023/09/05 05:46:11;;;;;;;18.63;13.60;;;13.80;99.90;;;;;;4977177;28;20046;-84
2023/09/05 05:48:40;;;;;;;16.98;13.57;;;13.90;99.90;;;;;;4962739;28;20191;-84
2023/09/05 05:51:06;;;;;;;19.40;13.60;;;14.00;99.90;;;;;;4979541;28;20119;-84
2023/09/05 05:53:35;;;;;;;15.43;12.70;;;14.10;99.90;;;;;;4948436;28;20517;-84
2023/09/05 05:56:02;;;;;;;16.15;13.07;;;14.20;99.90;;;;;;4946788;28;20042;-84
2023/09/05 05:58:28;;;;;;;15.73;13.05;;;14.20;99.90;;;;;;4981101;28;20046;-84
2023/09/05 06:01:03;;;;;;;19.10;12.63;;;14.30;99.90;;;;;;4961798;28;20038;-84
2023/09/05 06:03:32;;;;;;;15.93;12.48;;;14.40;99.90;;;;;;4982454;28;20122;-84
2023/09/05 06:06:05;;;;;;;18.02;12.70;;;14.50;99.90;;;;;;4981237;28;20065;-84
2023/09/05 06:08:31;;;;;;;18.40;12.27;;;14.60;99.90;;;;;;4964209;28;20449;-84
2023/09/05 06:10:57;;;;;;;14.93;12.20;;;14.70;99.90;;;;;;4946477;28;20050;-84
2023/09/05 06:13:23;;;;;;;17.67;12.23;;;14.80;99.90;;;;;;4950596;28;20038;-84
2023/09/05 06:15:49;;;;;;;17.67;13.27;;;14.80;99.90;;;;;;4946832;28;20398;-84
2023/09/05 06:18:15;;;;;;;15.35;12.52;;;15.00;99.90;;;;;;4947861;28;20038;-84
2023/09/05 06:20:40;;;;;;;16.58;12.18;;;15.10;99.90;;;;;;4981617;28;20051;-84
2023/09/05 06:23:06;;;;;;;14.43;11.60;;;15.20;99.90;;;;;;4949627;28;20034;-84
2023/09/05 06:25:32;;;;;;;15.00;11.75;;;15.30;99.90;;;;;;4980367;28;20096;-84
2023/09/05 06:27:58;;;;;;;14.48;12.00;;;15.30;99.90;;;;;;4957120;28;20240;-84
2023/09/05 06:30:23;;;;;;;14.52;11.65;;;15.40;99.90;;;;;;4964895;28;20049;-84
2023/09/05 06:32:50;;;;;;;17.52;11.40;;;15.60;99.90;;;;;;4946997;28;20050;-84
2023/09/05 06:35:16;;;;;;;13.52;11.10;;;15.70;99.90;;;;;;4966784;28;20623;-84
2023/09/05 06:37:44;;;;;;;14.82;11.07;;;15.80;99.90;;;;;;4959907;28;20101;-84
2023/09/05 06:40:14;;;;;;;15.40;10.75;;;15.80;99.90;;;;;;4961543;28;20042;-84
2023/09/05 06:42:43;;;;;;;12.05;10.25;;;15.90;99.90;;;;;;4979915;28;20046;-84
2023/09/05 06:45:12;;;;;;;14.27;10.88;;;16.00;99.90;;;;;;4964697;28;20587;-84
2023/09/05 06:47:37;;;;;;;14.68;10.77;;;16.10;99.90;;;;;;4982139;28;20458;-84
2023/09/05 06:50:06;;;;;;;12.93;9.95;;;16.20;99.90;;;;;;4945600;28;20326;-84
2023/09/05 06:52:33;;;;;;;12.15;10.15;;;16.30;99.90;;;;;;4977480;28;20057;-84
2023/09/05 06:54:58;;;;;;;11.45;9.35;;;16.40;99.90;;;;;;4961840;28;20042;-83
2023/09/05 06:57:25;;;;;;;15.65;10.80;;;16.50;99.90;;;;;;4958439;28;20132;-84
2023/09/05 06:59:50;;;;;;;13.43;9.45;;;16.50;99.90;;;;;;4976947;28;20041;-84
2023/09/05 07:02:16;;;;;;;10.70;9.60;;;16.60;99.90;;;;;;4966425;28;20050;-84
2023/09/05 07:04:42;;;;;;;12.05;9.82;;;16.70;99.90;;;;;;4982040;28;20034;-84
2023/09/05 07:07:08;;;;;;;12.40;9.55;;;16.80;99.90;;;;;;4960696;28;20509;-85
2023/09/05 07:09:34;;;;;;;11.63;9.18;;;16.90;99.90;;;;;;4965081;28;20089;-84
2023/09/05 07:12:00;;;;;;;11.68;9.43;;;17.00;99.90;;;;;;4960449;28;20120;-83
2023/09/05 07:14:28;;;;;;;12.50;9.57;;;17.10;99.90;;;;;;4963620;28;20058;-84
2023/09/05 07:17:06;;;;;;;11.73;9.57;;;17.20;99.90;;;;;;4945292;28;20050;-84
2023/09/05 07:19:31;;;;;;;11.27;9.75;;;17.30;99.90;;;;;;4932318;28;20141;-84
2023/09/05 07:21:57;;;;;;;11.77;9.18;;;17.30;99.90;;;;;;4977044;28;20121;-84
2023/09/05 07:24:26;;;;;;;12.00;9.60;;;17.40;99.90;;;;;;4975905;28;20475;-84
2023/09/05 07:26:51;;;;;;;10.90;8.88;;;17.50;99.90;;;;;;4959916;28;20049;-84
2023/09/05 07:29:23;;;;;;;10.68;8.95;;;17.60;99.90;;;;;;4964744;28;20042;-84
2023/09/05 07:31:52;;;;;;;11.00;8.63;;;17.70;99.90;;;;;;4962165;28;20097;-84
2023/09/05 07:34:23;;;;;;;9.52;8.27;;;17.80;99.90;;;;;;4977628;28;20140;-84
2023/09/05 07:36:49;;;;;;;9.32;7.93;;;17.90;99.90;;;;;;4977192;28;20073;-84
2023/09/05 07:39:14;;;;;;;9.60;8.13;;;18.00;99.90;;;;;;4946468;28;20073;-84
2023/09/05 07:41:40;;;;;;;10.95;8.55;;;18.00;99.90;;;;;;4960532;28;20046;-84
2023/09/05 07:44:09;;;;;;;11.70;7.93;;;18.10;99.90;;;;;;4946303;28;20049;-84
2023/09/05 07:46:34;;;;;;;8.90;7.45;;;18.20;99.90;;;;;;4962459;28;20042;-84
2023/09/05 07:49:03;;;;;;;11.20;7.68;;;18.30;99.90;;;;;;4964399;28;20050;-84
2023/09/05 07:51:29;;;;;;;11.10;7.45;;;18.50;99.90;;;;;;4960299;28;20051;-84
2023/09/05 07:54:03;;;;;;;9.52;7.32;;;18.60;99.90;;;;;;4977628;28;20560;-85
2023/09/05 07:56:30;;;;;;;9.13;7.72;;;18.70;99.90;;;;;;4946266;28;20474;-85
2023/09/05 07:58:56;;;;;;;10.55;7.30;;;18.80;99.90;;;;;;4982835;28;20049;-84
2023/09/05 08:01:22;;;;;;;9.43;6.88;;;18.90;99.90;;;;;;4959214;28;20046;-85
2023/09/05 08:03:47;;;;;;;7.50;6.38;;;19.10;99.90;;;;;;4947079;28;20067;-84
2023/09/05 08:06:16;;;;;;;10.63;7.45;;;19.20;99.90;;;;;;4978003;28;20386;-85
2023/09/05 08:08:42;;;;;;;9.68;6.85;;;19.30;99.90;;;;;;4957217;28;20250;-85
2023/09/05 08:11:08;;;;;;;10.98;6.85;;;19.30;99.90;;;;;;4974504;28;20093;-85
2023/09/05 08:13:33;;;;;;;8.05;6.43;;;19.40;99.90;;;;;;4962570;28;20047;-84
2023/09/05 08:15:59;;;;;;;7.70;6.30;;;19.60;99.90;;;;;;4964109;28;20046;-84
2023/09/05 08:18:31;;;;;;;6.40;5.80;;;19.70;99.90;;;;;;4962806;28;20285;-84
2023/09/05 08:20:59;;;;;;;6.78;5.43;;;19.70;99.90;;;;;;4949388;28;20035;-85
2023/09/05 08:23:25;;;;;;;7.57;5.95;;;19.90;99.90;;;;;;4961541;28;20450;-85
2023/09/05 08:25:51;;;;;;;7.43;5.88;;;20.10;99.90;;;;;;4946275;28;20182;-84
2023/09/05 08:28:19;;;;;;;7.03;5.00;;;20.20;99.90;;;;;;4978870;28;20501;-84
2023/09/05 08:30:45;;;;;;;7.38;5.20;;;20.20;99.90;;;;;;4954337;28;20490;-84
2023/09/05 08:33:10;;;;;;;7.95;5.78;;;20.40;99.90;;;;;;4962368;28;20045;-84
2023/09/05 08:35:37;;;;;;;6.28;5.68;;;20.50;99.90;;;;;;4944885;28;20042;-85
2023/09/05 08:38:07;;;;;;;6.80;5.43;;;20.60;99.90;;;;;;4978388;28;20041;-85
2023/09/05 08:40:34;;;;;;;8.30;5.75;;;20.70;99.90;;;;;;4975899;28;20038;-85
2023/09/05 08:42:59;;;;;;;5.85;5.25;;;20.80;99.90;;;;;;4960625;28;20065;-85
2023/09/05 08:45:29;;;;;;;10.57;5.45;;;20.90;99.90;;;;;;4978840;28;20069;-85
2023/09/05 08:47:55;;;;;;;6.88;5.22;;;21.00;99.90;;;;;;4945163;28;20045;-85
2023/09/05 08:50:22;;;;;;;6.97;4.95;;;21.10;99.90;;;;;;4955634;28;20039;-85
2023/09/05 08:52:49;;;;;;;5.53;4.88;;;21.30;99.90;;;;;;4958501;28;20112;-84
2023/09/05 08:55:16;;;;;;;8.18;5.72;;;21.40;99.90;;;;;;4942956;28;20173;-85
2023/09/05 08:57:47;;;;;;;7.50;5.35;;;21.60;99.90;;;;;;4958172;28;20076;-85
2023/09/05 09:00:17;;;;;;;5.95;5.07;;;21.60;99.90;;;;;;4960292;28;20450;-84
2023/09/05 09:02:42;;;;;;;10.30;5.78;;;21.80;99.90;;;;;;4962283;28;20477;-85
2023/09/05 09:05:08;;;;;;;6.63;5.50;;;21.80;99.90;;;;;;4972797;28;20126;-85
2023/09/05 09:07:37;;;;;;;5.47;4.90;;;22.00;99.90;;;;;;4959396;28;20305;-85
2023/09/05 09:10:20;;;;;;;5.22;4.13;;;22.10;99.90;;;;;;4943492;28;20049;-85
2023/09/05 09:12:54;;;;;;;8.43;4.72;;;22.20;99.90;;;;;;4941909;28;20042;-85
2023/09/05 09:15:22;;;;;;;5.35;4.57;;;22.30;99.90;;;;;;4959794;28;20092;-86
2023/09/05 09:17:51;;;;;;;6.20;4.72;;;22.50;99.90;;;;;;4943948;28;20472;-86
2023/09/05 09:20:19;;;;;;;5.20;4.00;;;22.50;99.90;;;;;;4959606;28;20042;-85
2023/09/05 09:22:45;;;;;;;5.63;4.00;;;22.70;99.90;;;;;;4961324;28;20047;-85
2023/09/05 09:25:20;;;;;;;5.45;4.20;;;22.80;99.90;;;;;;4942487;28;20034;-85
2023/09/05 09:27:50;;;;;;;3.97;3.58;;;23.00;99.90;;;;;;4939334;28;20046;-85
2023/09/05 09:30:22;;;;;;;4.35;3.40;;;23.10;99.90;;;;;;4960562;28;20066;-85
2023/09/05 09:32:51;;;;;;;4.93;3.58;;;23.30;99.90;;;;;;4966058;28;20309;-85
2023/09/05 09:35:17;;;;;;;4.10;3.47;;;23.50;99.90;;;;;;4961902;28;20042;-84
2023/09/05 09:37:46;;;;;;;4.85;3.60;;;23.60;99.90;;;;;;4961998;28;20049;-86
2023/09/05 09:40:12;;;;;;;6.13;3.33;;;23.50;99.90;;;;;;4974544;28;20043;-85
2023/09/05 09:42:38;;;;;;;3.42;2.97;;;23.70;99.90;;;;;;4941756;28;20046;-85
2023/09/05 09:45:08;;;;;;;5.63;3.28;;;23.90;99.90;;;;;;4943704;28;20145;-85
2023/09/05 09:47:38;;;;;;;3.55;3.00;;;24.00;99.90;;;;;;4943678;28;20414;-85
2023/09/05 09:50:04;;;;;;;5.05;3.38;;;24.10;99.90;;;;;;4969873;28;20542;-86
2023/09/05 09:52:35;;;;;;;3.83;3.22;;;24.20;99.90;;;;;;4959150;28;20042;-85
2023/09/05 09:55:08;;;;;;;3.70;3.30;;;24.40;99.90;;;;;;4955995;28;20046;-85
2023/09/05 09:57:41;;;;;;;5.22;3.33;;;24.40;99.90;;;;;;4944808;28;20533;-85
2023/09/05 10:00:11;;;;;;;3.97;3.03;;;24.50;99.90;;;;;;4961025;28;20121;-85
2023/09/05 10:02:43;;;;;;;4.25;3.28;;;24.70;99.90;;;;;;4955896;28;20094;-85
2023/09/05 10:05:10;;;;;;;5.03;3.70;;;24.70;99.90;;;;;;4978584;28;20147;-86
2023/09/05 10:07:37;;;;;;;4.28;3.20;;;24.70;99.90;;;;;;4945867;28;20061;-85
2023/09/05 10:10:04;;;;;;;3.67;2.95;;;24.80;99.90;;;;;;4946155;28;20042;-85
2023/09/05 10:12:37;;;;;;;4.30;3.25;;;25.00;99.90;;;;;;4960571;28;20046;-85
2023/09/05 10:15:07;;;;;;;3.97;3.17;;;25.00;99.90;;;;;;4945374;28;20042;-85
2023/09/05 10:17:33;;;;;;;3.40;3.05;;;25.10;99.90;;;;;;4962511;28;20108;-85
2023/09/05 10:20:00;;;;;;;4.25;3.30;;;25.10;99.90;;;;;;4958912;28;20034;-85
2023/09/05 10:22:29;;;;;;;5.45;3.33;;;25.20;99.90;;;;;;4960486;28;20113;-85
2023/09/05 10:24:57;;;;;;;4.75;3.45;;;25.30;99.90;;;;;;4976000;28;20038;-86
2023/09/05 10:27:23;;;;;;;4.72;3.10;;;25.50;99.90;;;;;;4945030;28;20590;-85
2023/09/05 10:29:49;;;;;;;4.90;3.17;;;25.60;99.90;;;;;;4959842;28;20031;-86
2023/09/05 10:32:22;;;;;;;4.18;3.15;;;25.70;99.90;;;;;;4943239;28;20046;-86
2023/09/05 10:34:48;;;;;;;5.07;3.10;;;25.90;99.90;;;;;;4965497;28;20137;-85
2023/09/05 10:37:21;;;;;;;5.53;3.22;;;25.90;99.90;;;;;;4976860;28;20522;-85
2023/09/05 10:39:49;;;;;;;4.65;2.90;;;26.00;99.90;;;;;;4979555;28;20455;-85
2023/09/05 10:42:15;;;;;;;4.38;3.00;;;26.10;99.90;;;;;;4963046;28;20389;-85
2023/09/05 10:44:47;;;;;;;3.75;3.20;;;26.30;99.90;;;;;;4963513;28;20039;-86
2023/09/05 10:47:29;;;;;;;4.20;2.90;;;26.20;99.90;;;;;;4964489;28;20034;-85
2023/09/05 10:49:59;;;;;;;5.53;2.83;;;26.40;99.90;;;;;;4977486;28;20042;-85
2023/09/05 10:52:32;;;;;;;5.72;2.95;;;26.40;99.90;;;;;;4964322;28;20060;-86
2023/09/05 10:55:18;;;;;;;2.60;2.30;;;26.30;99.90;;;;;;4970134;28;20389;-86
2023/09/05 10:57:47;;;;;;;4.78;2.80;;;26.60;99.90;;;;;;4961682;28;20097;-85
2023/09/05 11:00:16;;;;;;;3.95;2.53;;;26.60;99.90;;;;;;4966088;28;20042;-86
2023/09/05 11:02:49;;;;;;;3.60;2.60;;;26.70;99.90;;;;;;4964454;28;20089;-86
2023/09/05 11:05:19;;;;;;;3.38;2.67;;;26.60;99.90;;;;;;4946378;28;20038;-86
2023/09/05 11:07:50;;;;;;;4.47;2.55;;;26.70;99.90;;;;;;4947076;28;20058;-86
2023/09/05 11:10:30;;;;;;;3.47;2.63;;;27.00;99.90;;;;;;4961848;28;20351;-85
2023/09/05 11:13:06;;;;;;;3.28;2.40;;;27.10;99.90;;;;;;4978557;28;20042;-87
2023/09/05 11:15:37;;;;;;;4.05;2.30;;;27.20;99.90;;;;;;4944241;28;20037;-86
2023/09/05 11:18:09;;;;;;;4.32;2.67;;;27.20;99.90;;;;;;4959683;28;20060;-86
2023/09/05 11:20:43;;;;;;;4.30;2.55;;;27.30;99.90;;;;;;4961144;28;20046;-85
2023/09/05 11:23:21;;;;;;;3.47;2.20;;;27.50;99.90;;;;;;4977135;28;20155;-87
2023/09/05 11:25:50;;;;;;;4.00;2.40;;;27.70;99.90;;;;;;4976059;28;20059;-86
2023/09/05 11:28:16;;;;;;;3.95;2.30;;;27.70;99.90;;;;;;4947813;28;20466;-86
2023/09/05 11:30:46;;;;;;;3.70;2.38;;;27.70;99.90;;;;;;4949230;28;20477;-86
2023/09/05 11:33:16;;;;;;;3.97;2.50;;;27.80;99.90;;;;;;4963731;28;20142;-86
2023/09/05 11:35:47;;;;;;;2.92;2.30;;;28.00;99.90;;;;;;4980382;28;20073;-86
2023/09/05 11:38:13;;;;;;;3.05;2.33;;;27.90;99.90;;;;;;4975537;28;20034;-85
2023/09/05 11:40:41;;;;;;;5.40;2.65;;;28.10;99.90;;;;;;4960497;28;20073;-86
2023/09/05 11:43:11;;;;;;;2.90;2.15;;;28.10;99.90;;;;;;4964192;28;20053;-86
2023/09/05 11:45:39;;;;;;;2.60;2.30;;;28.40;99.90;;;;;;4974306;28;20166;-87
2023/09/05 11:48:08;;;;;;;3.33;1.85;;;28.40;99.90;;;;;;4964042;28;20129;-86
2023/09/05 11:50:34;;;;;;;3.10;2.28;;;28.30;99.90;;;;;;4962992;28;20108;-85
2023/09/05 11:53:03;;;;;;;3.15;2.10;;;28.50;99.90;;;;;;4976830;28;20085;-85
2023/09/05 11:55:29;;;;;;;3.42;2.13;;;28.70;99.90;;;;;;4975358;28;20165;-85
2023/09/05 11:57:58;;;;;;;2.30;2.10;;;28.60;99.90;;;;;;4959242;28;20046;-86
2023/09/05 12:00:25;;;;;;;3.00;2.30;;;28.60;99.90;;;;;;4962287;28;20050;-86
2023/09/05 12:02:52;;;;;;;2.95;2.17;;;28.80;99.90;;;;;;4959567;28;20039;-86
2023/09/05 12:05:21;;;;;;;4.50;2.00;;;29.00;99.90;;;;;;4976654;28;20061;-86
2023/09/05 12:07:51;;;;;;;2.63;2.00;;;28.60;99.90;;;;;;4942783;28;20054;-86
2023/09/05 12:10:17;;;;;;;3.55;2.05;;;28.90;99.90;;;;;;4974934;28;20039;-86
2023/09/05 12:12:58;;;;;;;4.80;2.08;;;29.00;99.90;;;;;;4957654;28;20046;-87
2023/09/05 12:15:35;;;;;;;2.83;1.80;;;29.20;99.90;;;;;;4948272;28;20057;-85
2023/09/05 12:18:05;;;;;;;2.75;2.00;;;29.20;99.90;;;;;;4949497;28;20050;-87
2023/09/05 12:20:32;;;;;;;3.47;2.00;;;29.40;99.90;;;;;;4977363;28;20046;-86
2023/09/05 12:22:58;;;;;;;2.20;1.90;;;29.60;99.90;;;;;;4941426;28;20050;-86
2023/09/05 12:25:26;;;;;;;3.78;2.13;;;29.60;99.90;;;;;;4941806;28;20078;-85
2023/09/05 12:27:57;;;;;;;3.67;1.98;;;29.80;99.90;;;;;;4976827;28;20117;-86
2023/09/05 12:30:33;;;;;;;2.40;1.80;;;29.80;99.90;;;;;;4958734;28;20497;-86
2023/09/05 12:33:06;;;;;;;4.18;1.70;;;30.10;99.90;;;;;;4949275;28;20325;-86
2023/09/05 12:35:33;;;;;;;2.25;1.98;;;30.20;99.90;;;;;;4960956;28;20045;-86
2023/09/05 12:38:00;;;;;;;2.30;1.77;;;29.80;99.90;;;;;;4963600;28;20619;-86
2023/09/05 12:40:27;;;;;;;3.03;1.70;;;30.00;99.90;;;;;;4959616;28;20621;-86
2023/09/05 12:42:53;;;;;;;2.83;1.92;;;30.10;99.90;;;;;;4962219;28;20043;-86